sensor_id;sensor_type;location;lat;lon;timestamp;P1;durP1;ratioP1;P2;durP2;ratioP2
13855;SDS011;6998;53.608;9.958;2022-11-15T00:00:44;40.33;;;29.87;;
13855;SDS011;6998;53.608;9.958;2022-11-15T00:03:12;41.33;;;28.57;;
13855;SDS011;6998;53.608;9.958;2022-11-15T00:05:44;36.27;;;27.63;;
13855;SDS011;6998;53.608;9.958;2022-11-15T00:08:11;35.00;;;27.67;;
13855;SDS011;6998;53.608;9.958;2022-11-15T00:10:38;36.27;;;28.17;;
13855;SDS011;6998;53.608;9.958;2022-11-15T00:13:05;42.33;;;28.70;;
13855;SDS011;6998;53.608;9.958;2022-11-15T00:15:34;41.00;;;27.87;;
13855;SDS011;6998;53.608;9.958;2022-11-15T00:18:02;38.70;;;28.30;;
13855;SDS011;6998;53.608;9.958;2022-11-15T00:20:29;39.73;;;29.10;;
13855;SDS011;6998;53.608;9.958;2022-11-15T00:22:57;38.57;;;27.77;;
13855;SDS011;6998;53.608;9.958;2022-11-15T00:25:23;43.53;;;29.17;;
13855;SDS011;6998;53.608;9.958;2022-11-15T00:27:50;41.33;;;29.50;;
13855;SDS011;6998;53.608;9.958;2022-11-15T00:30:21;40.30;;;28.63;;
13855;SDS011;6998;53.608;9.958;2022-11-15T00:32:48;44.00;;;31.07;;
13855;SDS011;6998;53.608;9.958;2022-11-15T00:35:14;45.97;;;32.47;;
13855;SDS011;6998;53.608;9.958;2022-11-15T00:37:41;45.37;;;30.93;;
13855;SDS011;6998;53.608;9.958;2022-11-15T00:40:10;48.13;;;31.73;;
13855;SDS011;6998;53.608;9.958;2022-11-15T00:42:38;47.47;;;32.83;;
13855;SDS011;6998;53.608;9.958;2022-11-15T00:45:05;47.53;;;33.03;;
13855;SDS011;6998;53.608;9.958;2022-11-15T00:47:33;44.80;;;32.00;;
13855;SDS011;6998;53.608;9.958;2022-11-15T00:49:59;40.63;;;30.13;;
13855;SDS011;6998;53.608;9.958;2022-11-15T00:52:26;42.67;;;29.93;;
13855;SDS011;6998;53.608;9.958;2022-11-15T00:54:55;44.37;;;30.97;;
13855;SDS011;6998;53.608;9.958;2022-11-15T00:57:23;43.73;;;29.93;;
13855;SDS011;6998;53.608;9.958;2022-11-15T00:59:50;41.97;;;29.00;;
13855;SDS011;6998;53.608;9.958;2022-11-15T01:02:17;44.30;;;29.97;;
13855;SDS011;6998;53.608;9.958;2022-11-15T01:04:43;41.10;;;29.73;;
13855;SDS011;6998;53.608;9.958;2022-11-15T01:07:10;40.27;;;29.67;;
13855;SDS011;6998;53.608;9.958;2022-11-15T01:09:37;39.63;;;29.33;;
13855;SDS011;6998;53.608;9.958;2022-11-15T01:12:03;42.27;;;30.83;;
13855;SDS011;6998;53.608;9.958;2022-11-15T01:14:32;44.10;;;31.23;;
13855;SDS011;6998;53.608;9.958;2022-11-15T01:16:58;40.90;;;29.87;;
13855;SDS011;6998;53.608;9.958;2022-11-15T01:19:25;36.90;;;27.73;;
13855;SDS011;6998;53.608;9.958;2022-11-15T01:21:52;39.50;;;28.73;;
13855;SDS011;6998;53.608;9.958;2022-11-15T01:24:18;41.33;;;28.40;;
13855;SDS011;6998;53.608;9.958;2022-11-15T01:26:45;42.50;;;29.63;;
13855;SDS011;6998;53.608;9.958;2022-11-15T01:29:12;32.10;;;25.33;;
13855;SDS011;6998;53.608;9.958;2022-11-15T01:31:40;37.27;;;27.70;;
13855;SDS011;6998;53.608;9.958;2022-11-15T01:34:06;37.43;;;28.57;;
13855;SDS011;6998;53.608;9.958;2022-11-15T01:36:33;36.43;;;28.00;;
13855;SDS011;6998;53.608;9.958;2022-11-15T01:39:00;33.27;;;26.50;;
13855;SDS011;6998;53.608;9.958;2022-11-15T01:41:27;37.93;;;26.03;;
13855;SDS011;6998;53.608;9.958;2022-11-15T01:44:25;35.10;;;25.90;;
13855;SDS011;6998;53.608;9.958;2022-11-15T01:47:07;34.77;;;25.77;;
13855;SDS011;6998;53.608;9.958;2022-11-15T01:49:37;34.90;;;26.13;;
13855;SDS011;6998;53.608;9.958;2022-11-15T01:52:05;35.83;;;27.50;;
13855;SDS011;6998;53.608;9.958;2022-11-15T01:54:36;35.53;;;25.60;;
13855;SDS011;6998;53.608;9.958;2022-11-15T01:57:03;32.77;;;24.77;;
13855;SDS011;6998;53.608;9.958;2022-11-15T01:59:32;33.23;;;25.63;;
13855;SDS011;6998;53.608;9.958;2022-11-15T02:02:01;36.03;;;25.90;;
13855;SDS011;6998;53.608;9.958;2022-11-15T02:04:28;34.93;;;26.07;;
13855;SDS011;6998;53.608;9.958;2022-11-15T02:06:57;32.90;;;25.03;;
13855;SDS011;6998;53.608;9.958;2022-11-15T02:09:24;34.53;;;25.17;;
13855;SDS011;6998;53.608;9.958;2022-11-15T02:11:51;35.60;;;26.20;;
13855;SDS011;6998;53.608;9.958;2022-11-15T02:14:20;33.07;;;25.27;;
13855;SDS011;6998;53.608;9.958;2022-11-15T02:16:49;30.40;;;24.40;;
13855;SDS011;6998;53.608;9.958;2022-11-15T02:19:34;33.63;;;24.57;;
13855;SDS011;6998;53.608;9.958;2022-11-15T02:22:21;34.07;;;25.10;;
13855;SDS011;6998;53.608;9.958;2022-11-15T02:25:03;33.23;;;25.20;;
13855;SDS011;6998;53.608;9.958;2022-11-15T02:30:44;32.97;;;24.57;;
13855;SDS011;6998;53.608;9.958;2022-11-15T02:33:16;35.07;;;25.13;;
13855;SDS011;6998;53.608;9.958;2022-11-15T02:35:56;31.70;;;23.87;;
13855;SDS011;6998;53.608;9.958;2022-11-15T02:38:28;34.17;;;25.27;;
13855;SDS011;6998;53.608;9.958;2022-11-15T02:41:01;35.90;;;25.30;;
13855;SDS011;6998;53.608;9.958;2022-11-15T02:43:35;37.47;;;26.87;;
13855;SDS011;6998;53.608;9.958;2022-11-15T02:46:23;32.33;;;24.63;;
13855;SDS011;6998;53.608;9.958;2022-11-15T02:49:08;34.73;;;25.70;;
13855;SDS011;6998;53.608;9.958;2022-11-15T02:51:37;35.27;;;25.93;;
13855;SDS011;6998;53.608;9.958;2022-11-15T02:54:05;33.27;;;24.43;;
13855;SDS011;6998;53.608;9.958;2022-11-15T02:56:32;32.70;;;24.33;;
13855;SDS011;6998;53.608;9.958;2022-11-15T03:01:58;40.27;;;26.63;;
13855;SDS011;6998;53.608;9.958;2022-11-15T03:04:41;36.30;;;25.10;;
13855;SDS011;6998;53.608;9.958;2022-11-15T03:07:14;32.47;;;25.83;;
13855;SDS011;6998;53.608;9.958;2022-11-15T03:09:47;33.27;;;24.77;;
13855;SDS011;6998;53.608;9.958;2022-11-15T03:12:22;30.70;;;23.53;;
13855;SDS011;6998;53.608;9.958;2022-11-15T03:14:54;33.57;;;24.10;;
13855;SDS011;6998;53.608;9.958;2022-11-15T03:17:27;35.73;;;25.47;;
13855;SDS011;6998;53.608;9.958;2022-11-15T03:19:57;36.13;;;25.80;;
13855;SDS011;6998;53.608;9.958;2022-11-15T03:22:27;33.53;;;23.90;;
13855;SDS011;6998;53.608;9.958;2022-11-15T03:25:00;30.63;;;23.10;;
13855;SDS011;6998;53.608;9.958;2022-11-15T03:27:33;31.70;;;22.63;;
13855;SDS011;6998;53.608;9.958;2022-11-15T03:30:05;34.67;;;24.07;;
13855;SDS011;6998;53.608;9.958;2022-11-15T03:32:35;31.97;;;24.70;;
13855;SDS011;6998;53.608;9.958;2022-11-15T03:35:06;33.73;;;24.17;;
13855;SDS011;6998;53.608;9.958;2022-11-15T03:37:36;33.70;;;24.83;;
13855;SDS011;6998;53.608;9.958;2022-11-15T03:40:09;30.63;;;22.67;;
13855;SDS011;6998;53.608;9.958;2022-11-15T03:42:38;32.77;;;24.63;;
13855;SDS011;6998;53.608;9.958;2022-11-15T03:45:11;33.57;;;24.77;;
13855;SDS011;6998;53.608;9.958;2022-11-15T03:47:45;34.50;;;24.37;;
13855;SDS011;6998;53.608;9.958;2022-11-15T03:50:16;31.97;;;23.57;;
13855;SDS011;6998;53.608;9.958;2022-11-15T03:52:44;33.93;;;23.53;;
13855;SDS011;6998;53.608;9.958;2022-11-15T03:55:13;32.70;;;23.90;;
13855;SDS011;6998;53.608;9.958;2022-11-15T03:57:42;31.50;;;23.30;;
13855;SDS011;6998;53.608;9.958;2022-11-15T04:00:10;32.73;;;24.20;;
13855;SDS011;6998;53.608;9.958;2022-11-15T04:02:37;32.43;;;22.90;;
13855;SDS011;6998;53.608;9.958;2022-11-15T04:05:05;33.80;;;24.20;;
13855;SDS011;6998;53.608;9.958;2022-11-15T04:07:32;31.57;;;22.30;;
13855;SDS011;6998;53.608;9.958;2022-11-15T04:09:59;30.67;;;22.53;;
13855;SDS011;6998;53.608;9.958;2022-11-15T04:12:29;32.03;;;23.50;;
13855;SDS011;6998;53.608;9.958;2022-11-15T04:14:59;32.10;;;22.07;;
13855;SDS011;6998;53.608;9.958;2022-11-15T04:17:33;31.30;;;21.90;;
13855;SDS011;6998;53.608;9.958;2022-11-15T04:20:00;29.90;;;21.40;;
13855;SDS011;6998;53.608;9.958;2022-11-15T04:22:46;29.30;;;21.37;;
13855;SDS011;6998;53.608;9.958;2022-11-15T04:25:29;29.67;;;22.20;;
13855;SDS011;6998;53.608;9.958;2022-11-15T04:27:56;29.53;;;21.73;;
13855;SDS011;6998;53.608;9.958;2022-11-15T04:30:22;29.03;;;21.00;;
13855;SDS011;6998;53.608;9.958;2022-11-15T04:32:49;30.03;;;22.50;;
13855;SDS011;6998;53.608;9.958;2022-11-15T04:35:16;31.80;;;22.43;;
13855;SDS011;6998;53.608;9.958;2022-11-15T04:37:42;30.17;;;21.43;;
13855;SDS011;6998;53.608;9.958;2022-11-15T04:40:11;29.03;;;22.07;;
13855;SDS011;6998;53.608;9.958;2022-11-15T04:42:37;30.73;;;23.70;;
13855;SDS011;6998;53.608;9.958;2022-11-15T04:45:07;33.43;;;23.43;;
13855;SDS011;6998;53.608;9.958;2022-11-15T04:47:34;29.23;;;21.70;;
13855;SDS011;6998;53.608;9.958;2022-11-15T04:50:00;28.63;;;21.97;;
13855;SDS011;6998;53.608;9.958;2022-11-15T04:52:27;31.73;;;22.90;;
13855;SDS011;6998;53.608;9.958;2022-11-15T04:54:54;32.80;;;24.63;;
13855;SDS011;6998;53.608;9.958;2022-11-15T04:57:22;34.77;;;24.13;;
13855;SDS011;6998;53.608;9.958;2022-11-15T04:59:49;35.67;;;25.27;;
13855;SDS011;6998;53.608;9.958;2022-11-15T05:02:15;39.97;;;29.30;;
13855;SDS011;6998;53.608;9.958;2022-11-15T05:04:42;45.07;;;34.60;;
13855;SDS011;6998;53.608;9.958;2022-11-15T05:07:08;43.20;;;33.80;;
13855;SDS011;6998;53.608;9.958;2022-11-15T05:09:34;45.50;;;33.70;;
13855;SDS011;6998;53.608;9.958;2022-11-15T05:12:01;42.33;;;31.53;;
13855;SDS011;6998;53.608;9.958;2022-11-15T05:14:29;44.80;;;33.83;;
13855;SDS011;6998;53.608;9.958;2022-11-15T05:16:56;41.83;;;32.33;;
13855;SDS011;6998;53.608;9.958;2022-11-15T05:19:23;42.77;;;31.23;;
13855;SDS011;6998;53.608;9.958;2022-11-15T05:21:49;40.83;;;30.87;;
13855;SDS011;6998;53.608;9.958;2022-11-15T05:24:16;39.73;;;28.60;;
13855;SDS011;6998;53.608;9.958;2022-11-15T05:26:43;39.20;;;26.70;;
13855;SDS011;6998;53.608;9.958;2022-11-15T05:29:09;37.10;;;24.73;;
13855;SDS011;6998;53.608;9.958;2022-11-15T05:31:40;35.07;;;25.27;;
13855;SDS011;6998;53.608;9.958;2022-11-15T05:34:07;33.70;;;25.10;;
13855;SDS011;6998;53.608;9.958;2022-11-15T05:36:34;32.83;;;24.17;;
13855;SDS011;6998;53.608;9.958;2022-11-15T05:39:03;35.47;;;25.00;;
13855;SDS011;6998;53.608;9.958;2022-11-15T05:41:32;33.77;;;22.90;;
13855;SDS011;6998;53.608;9.958;2022-11-15T05:44:01;32.33;;;22.53;;
13855;SDS011;6998;53.608;9.958;2022-11-15T05:46:32;30.40;;;22.73;;
13855;SDS011;6998;53.608;9.958;2022-11-15T05:49:01;33.87;;;24.57;;
13855;SDS011;6998;53.608;9.958;2022-11-15T05:51:28;34.50;;;23.80;;
13855;SDS011;6998;53.608;9.958;2022-11-15T05:53:56;31.23;;;23.47;;
13855;SDS011;6998;53.608;9.958;2022-11-15T05:56:24;31.80;;;22.40;;
13855;SDS011;6998;53.608;9.958;2022-11-15T05:58:51;30.07;;;22.83;;
13855;SDS011;6998;53.608;9.958;2022-11-15T06:01:19;30.00;;;22.30;;
13855;SDS011;6998;53.608;9.958;2022-11-15T06:03:46;31.47;;;23.07;;
13855;SDS011;6998;53.608;9.958;2022-11-15T06:06:14;30.57;;;23.03;;
13855;SDS011;6998;53.608;9.958;2022-11-15T06:08:40;30.93;;;22.17;;
13855;SDS011;6998;53.608;9.958;2022-11-15T06:11:07;27.23;;;20.80;;
13855;SDS011;6998;53.608;9.958;2022-11-15T06:13:34;26.60;;;20.40;;
13855;SDS011;6998;53.608;9.958;2022-11-15T06:16:01;30.27;;;21.37;;
13855;SDS011;6998;53.608;9.958;2022-11-15T06:18:27;27.90;;;20.50;;
13855;SDS011;6998;53.608;9.958;2022-11-15T06:20:58;25.30;;;20.37;;
13855;SDS011;6998;53.608;9.958;2022-11-15T06:23:27;31.33;;;22.97;;
13855;SDS011;6998;53.608;9.958;2022-11-15T06:25:56;29.53;;;22.33;;
13855;SDS011;6998;53.608;9.958;2022-11-15T06:28:23;30.40;;;22.77;;
13855;SDS011;6998;53.608;9.958;2022-11-15T06:30:50;28.63;;;21.77;;
13855;SDS011;6998;53.608;9.958;2022-11-15T06:33:17;30.43;;;22.00;;
13855;SDS011;6998;53.608;9.958;2022-11-15T06:35:43;28.30;;;20.73;;
13855;SDS011;6998;53.608;9.958;2022-11-15T06:38:10;29.13;;;20.83;;
13855;SDS011;6998;53.608;9.958;2022-11-15T06:40:39;26.00;;;20.47;;
13855;SDS011;6998;53.608;9.958;2022-11-15T06:43:06;28.93;;;21.17;;
13855;SDS011;6998;53.608;9.958;2022-11-15T06:45:33;25.37;;;19.43;;
13855;SDS011;6998;53.608;9.958;2022-11-15T06:47:59;27.30;;;19.77;;
13855;SDS011;6998;53.608;9.958;2022-11-15T06:50:26;26.27;;;19.00;;
13855;SDS011;6998;53.608;9.958;2022-11-15T06:52:53;27.33;;;18.90;;
13855;SDS011;6998;53.608;9.958;2022-11-15T06:55:20;25.37;;;19.07;;
13855;SDS011;6998;53.608;9.958;2022-11-15T06:57:48;27.63;;;20.30;;
13855;SDS011;6998;53.608;9.958;2022-11-15T07:00:16;25.47;;;19.87;;
13855;SDS011;6998;53.608;9.958;2022-11-15T07:02:44;25.20;;;19.37;;
13855;SDS011;6998;53.608;9.958;2022-11-15T07:05:11;28.23;;;20.53;;
13855;SDS011;6998;53.608;9.958;2022-11-15T07:07:39;26.97;;;19.50;;
13855;SDS011;6998;53.608;9.958;2022-11-15T07:10:06;25.47;;;19.70;;
13855;SDS011;6998;53.608;9.958;2022-11-15T07:12:34;23.43;;;19.43;;
13855;SDS011;6998;53.608;9.958;2022-11-15T07:15:02;27.90;;;20.70;;
13855;SDS011;6998;53.608;9.958;2022-11-15T07:17:29;28.50;;;20.20;;
13855;SDS011;6998;53.608;9.958;2022-11-15T07:19:56;29.07;;;20.03;;
13855;SDS011;6998;53.608;9.958;2022-11-15T07:22:23;26.20;;;19.43;;
13855;SDS011;6998;53.608;9.958;2022-11-15T07:24:50;25.10;;;19.73;;
13855;SDS011;6998;53.608;9.958;2022-11-15T07:27:16;26.40;;;19.17;;
13855;SDS011;6998;53.608;9.958;2022-11-15T07:29:43;26.03;;;19.60;;
13855;SDS011;6998;53.608;9.958;2022-11-15T07:32:11;25.10;;;18.57;;
13855;SDS011;6998;53.608;9.958;2022-11-15T07:34:38;27.50;;;19.50;;
13855;SDS011;6998;53.608;9.958;2022-11-15T07:37:04;23.57;;;18.60;;
13855;SDS011;6998;53.608;9.958;2022-11-15T07:39:31;24.47;;;19.83;;
13855;SDS011;6998;53.608;9.958;2022-11-15T07:41:58;24.87;;;20.60;;
13855;SDS011;6998;53.608;9.958;2022-11-15T07:44:39;22.40;;;19.20;;
13855;SDS011;6998;53.608;9.958;2022-11-15T07:47:05;23.40;;;18.77;;
13855;SDS011;6998;53.608;9.958;2022-11-15T07:49:33;22.40;;;19.43;;
13855;SDS011;6998;53.608;9.958;2022-11-15T07:52:00;26.70;;;19.00;;
13855;SDS011;6998;53.608;9.958;2022-11-15T07:54:27;21.43;;;17.83;;
13855;SDS011;6998;53.608;9.958;2022-11-15T07:56:53;22.43;;;18.47;;
13855;SDS011;6998;53.608;9.958;2022-11-15T07:59:20;23.57;;;18.60;;
13855;SDS011;6998;53.608;9.958;2022-11-15T08:01:47;25.33;;;19.37;;
13855;SDS011;6998;53.608;9.958;2022-11-15T08:04:13;23.47;;;18.90;;
13855;SDS011;6998;53.608;9.958;2022-11-15T08:06:41;24.23;;;18.43;;
13855;SDS011;6998;53.608;9.958;2022-11-15T08:09:08;24.10;;;18.90;;
13855;SDS011;6998;53.608;9.958;2022-11-15T08:11:35;21.83;;;17.10;;
13855;SDS011;6998;53.608;9.958;2022-11-15T08:14:02;22.33;;;17.53;;
13855;SDS011;6998;53.608;9.958;2022-11-15T08:16:29;22.53;;;17.07;;
13855;SDS011;6998;53.608;9.958;2022-11-15T08:18:55;20.53;;;16.63;;
13855;SDS011;6998;53.608;9.958;2022-11-15T08:21:22;21.13;;;17.13;;
13855;SDS011;6998;53.608;9.958;2022-11-15T08:23:50;20.43;;;17.80;;
13855;SDS011;6998;53.608;9.958;2022-11-15T08:26:17;22.40;;;18.17;;
13855;SDS011;6998;53.608;9.958;2022-11-15T08:28:44;24.13;;;17.77;;
13855;SDS011;6998;53.608;9.958;2022-11-15T08:31:13;22.33;;;17.50;;
13855;SDS011;6998;53.608;9.958;2022-11-15T08:33:41;23.80;;;19.00;;
13855;SDS011;6998;53.608;9.958;2022-11-15T08:36:10;22.73;;;17.43;;
13855;SDS011;6998;53.608;9.958;2022-11-15T08:38:39;21.07;;;17.30;;
13855;SDS011;6998;53.608;9.958;2022-11-15T08:41:11;22.37;;;18.17;;
13855;SDS011;6998;53.608;9.958;2022-11-15T08:43:43;21.90;;;17.10;;
13855;SDS011;6998;53.608;9.958;2022-11-15T08:46:10;20.70;;;18.07;;
13855;SDS011;6998;53.608;9.958;2022-11-15T08:48:38;22.17;;;17.87;;
13855;SDS011;6998;53.608;9.958;2022-11-15T08:51:05;21.73;;;18.03;;
13855;SDS011;6998;53.608;9.958;2022-11-15T08:53:32;20.97;;;18.10;;
13855;SDS011;6998;53.608;9.958;2022-11-15T08:55:59;22.77;;;18.40;;
13855;SDS011;6998;53.608;9.958;2022-11-15T08:58:27;20.87;;;16.47;;
13855;SDS011;6998;53.608;9.958;2022-11-15T09:00:54;22.93;;;17.23;;
13855;SDS011;6998;53.608;9.958;2022-11-15T09:03:21;18.73;;;16.70;;
13855;SDS011;6998;53.608;9.958;2022-11-15T09:05:47;21.73;;;16.77;;
13855;SDS011;6998;53.608;9.958;2022-11-15T09:08:14;21.23;;;16.83;;
13855;SDS011;6998;53.608;9.958;2022-11-15T09:10:41;18.93;;;16.77;;
13855;SDS011;6998;53.608;9.958;2022-11-15T09:13:08;21.13;;;17.03;;
13855;SDS011;6998;53.608;9.958;2022-11-15T09:15:36;22.60;;;16.30;;
13855;SDS011;6998;53.608;9.958;2022-11-15T09:18:02;22.00;;;16.50;;
13855;SDS011;6998;53.608;9.958;2022-11-15T09:20:29;20.67;;;16.37;;
13855;SDS011;6998;53.608;9.958;2022-11-15T09:22:58;20.87;;;16.73;;
13855;SDS011;6998;53.608;9.958;2022-11-15T09:25:25;19.33;;;16.90;;
13855;SDS011;6998;53.608;9.958;2022-11-15T09:27:52;25.33;;;18.27;;
13855;SDS011;6998;53.608;9.958;2022-11-15T09:30:19;22.67;;;17.47;;
13855;SDS011;6998;53.608;9.958;2022-11-15T09:32:48;22.63;;;18.13;;
13855;SDS011;6998;53.608;9.958;2022-11-15T09:35:14;24.40;;;16.70;;
13855;SDS011;6998;53.608;9.958;2022-11-15T09:37:41;22.30;;;17.40;;
13855;SDS011;6998;53.608;9.958;2022-11-15T09:40:08;20.70;;;16.77;;
13855;SDS011;6998;53.608;9.958;2022-11-15T09:42:43;18.10;;;16.03;;
13855;SDS011;6998;53.608;9.958;2022-11-15T09:45:22;20.27;;;16.83;;
13855;SDS011;6998;53.608;9.958;2022-11-15T09:48:07;19.70;;;17.10;;
13855;SDS011;6998;53.608;9.958;2022-11-15T09:50:49;16.83;;;14.70;;
13855;SDS011;6998;53.608;9.958;2022-11-15T09:53:19;20.30;;;16.35;;
13855;SDS011;6998;53.608;9.958;2022-11-15T09:55:51;19.60;;;16.23;;
13855;SDS011;6998;53.608;9.958;2022-11-15T09:58:25;19.80;;;15.47;;
13855;SDS011;6998;53.608;9.958;2022-11-15T10:00:57;19.17;;;16.47;;
13855;SDS011;6998;53.608;9.958;2022-11-15T10:03:30;21.73;;;17.03;;
13855;SDS011;6998;53.608;9.958;2022-11-15T10:06:01;18.67;;;16.77;;
13855;SDS011;6998;53.608;9.958;2022-11-15T10:08:31;21.57;;;16.43;;
13855;SDS011;6998;53.608;9.958;2022-11-15T10:11:07;18.48;;;16.15;;
13855;SDS011;6998;53.608;9.958;2022-11-15T10:13:37;19.83;;;16.17;;
13855;SDS011;6998;53.608;9.958;2022-11-15T10:16:13;20.73;;;16.43;;
13855;SDS011;6998;53.608;9.958;2022-11-15T10:18:55;20.60;;;16.20;;
13855;SDS011;6998;53.608;9.958;2022-11-15T10:21:29;20.85;;;16.45;;
13855;SDS011;6998;53.608;9.958;2022-11-15T10:24:08;21.93;;;15.03;;
13855;SDS011;6998;53.608;9.958;2022-11-15T10:26:37;20.60;;;15.17;;
13855;SDS011;6998;53.608;9.958;2022-11-15T10:29:04;17.70;;;15.20;;
13855;SDS011;6998;53.608;9.958;2022-11-15T10:31:31;17.57;;;15.43;;
13855;SDS011;6998;53.608;9.958;2022-11-15T10:34:14;20.10;;;14.77;;
13855;SDS011;6998;53.608;9.958;2022-11-15T10:36:44;17.40;;;14.55;;
13855;SDS011;6998;53.608;9.958;2022-11-15T10:39:12;19.73;;;15.52;;
13855;SDS011;6998;53.608;9.958;2022-11-15T10:41:40;18.20;;;14.97;;
13855;SDS011;6998;53.608;9.958;2022-11-15T10:44:20;16.37;;;14.67;;
13855;SDS011;6998;53.608;9.958;2022-11-15T10:47:03;17.63;;;14.50;;
13855;SDS011;6998;53.608;9.958;2022-11-15T10:52:51;15.45;;;13.13;;
13855;SDS011;6998;53.608;9.958;2022-11-15T10:55:21;18.90;;;13.55;;
13855;SDS011;6998;53.608;9.958;2022-11-15T10:57:52;15.18;;;12.88;;
13855;SDS011;6998;53.608;9.958;2022-11-15T11:00:27;16.92;;;13.55;;
13855;SDS011;6998;53.608;9.958;2022-11-15T11:02:57;15.77;;;12.95;;
13855;SDS011;6998;53.608;9.958;2022-11-15T11:05:27;14.70;;;13.20;;
13855;SDS011;6998;53.608;9.958;2022-11-15T11:07:59;16.50;;;12.80;;
13855;SDS011;6998;53.608;9.958;2022-11-15T11:10:28;15.45;;;13.13;;
13855;SDS011;6998;53.608;9.958;2022-11-15T11:12:55;18.00;;;13.07;;
13855;SDS011;6998;53.608;9.958;2022-11-15T11:15:22;16.13;;;12.60;;
13855;SDS011;6998;53.608;9.958;2022-11-15T11:17:57;14.38;;;12.20;;
13855;SDS011;6998;53.608;9.958;2022-11-15T11:20:30;15.93;;;12.43;;
13855;SDS011;6998;53.608;9.958;2022-11-15T11:23:05;13.73;;;12.32;;
13855;SDS011;6998;53.608;9.958;2022-11-15T11:25:56;20.75;;;13.45;;
13855;SDS011;6998;53.608;9.958;2022-11-15T11:28:37;14.90;;;11.93;;
13855;SDS011;6998;53.608;9.958;2022-11-15T11:31:14;17.25;;;13.25;;
13855;SDS011;6998;53.608;9.958;2022-11-15T11:33:52;13.77;;;11.63;;
13855;SDS011;6998;53.608;9.958;2022-11-15T11:36:32;13.70;;;12.20;;
13855;SDS011;6998;53.608;9.958;2022-11-15T11:39:12;15.98;;;12.40;;
13855;SDS011;6998;53.608;9.958;2022-11-15T11:41:53;18.08;;;12.40;;
13855;SDS011;6998;53.608;9.958;2022-11-15T11:44:27;15.00;;;11.50;;
13855;SDS011;6998;53.608;9.958;2022-11-15T11:46:59;16.58;;;12.20;;
13855;SDS011;6998;53.608;9.958;2022-11-15T11:49:28;14.73;;;11.27;;
13855;SDS011;6998;53.608;9.958;2022-11-15T11:52:00;13.23;;;10.88;;
13855;SDS011;6998;53.608;9.958;2022-11-15T11:54:37;16.42;;;10.40;;
13855;SDS011;6998;53.608;9.958;2022-11-15T11:57:10;13.25;;;11.32;;
13855;SDS011;6998;53.608;9.958;2022-11-15T11:59:43;12.77;;;11.35;;
13855;SDS011;6998;53.608;9.958;2022-11-15T12:02:16;11.30;;;10.20;;
13855;SDS011;6998;53.608;9.958;2022-11-15T12:04:48;12.52;;;10.40;;
13855;SDS011;6998;53.608;9.958;2022-11-15T12:07:19;12.40;;;11.10;;
13855;SDS011;6998;53.608;9.958;2022-11-15T12:09:51;15.07;;;11.50;;
13855;SDS011;6998;53.608;9.958;2022-11-15T12:12:25;12.30;;;10.93;;
13855;SDS011;6998;53.608;9.958;2022-11-15T12:14:59;13.20;;;11.45;;
13855;SDS011;6998;53.608;9.958;2022-11-15T12:17:29;11.82;;;10.52;;
13855;SDS011;6998;53.608;9.958;2022-11-15T12:19:57;12.48;;;10.50;;
13855;SDS011;6998;53.608;9.958;2022-11-15T12:22:27;11.52;;;10.32;;
13855;SDS011;6998;53.608;9.958;2022-11-15T12:25:01;15.23;;;10.70;;
13855;SDS011;6998;53.608;9.958;2022-11-15T12:27:36;12.68;;;10.02;;
13855;SDS011;6998;53.608;9.958;2022-11-15T12:30:08;16.38;;;10.68;;
13855;SDS011;6998;53.608;9.958;2022-11-15T12:32:38;14.20;;;9.85;;
13855;SDS011;6998;53.608;9.958;2022-11-15T12:35:20;12.82;;;10.07;;
13855;SDS011;6998;53.608;9.958;2022-11-15T12:37:50;13.02;;;9.20;;
13855;SDS011;6998;53.608;9.958;2022-11-15T12:40:31;12.20;;;10.20;;
13855;SDS011;6998;53.608;9.958;2022-11-15T12:43:00;11.15;;;9.82;;
13855;SDS011;6998;53.608;9.958;2022-11-15T12:45:30;12.55;;;9.52;;
13855;SDS011;6998;53.608;9.958;2022-11-15T12:51:11;11.63;;;9.70;;
13855;SDS011;6998;53.608;9.958;2022-11-15T12:53:38;13.80;;;10.10;;
13855;SDS011;6998;53.608;9.958;2022-11-15T12:56:16;9.95;;;8.82;;
13855;SDS011;6998;53.608;9.958;2022-11-15T12:58:48;11.70;;;9.52;;
13855;SDS011;6998;53.608;9.958;2022-11-15T13:04:25;10.77;;;9.48;;
13855;SDS011;6998;53.608;9.958;2022-11-15T13:06:53;12.48;;;9.77;;
13855;SDS011;6998;53.608;9.958;2022-11-15T13:15:40;11.63;;;9.35;;
13855;SDS011;6998;53.608;9.958;2022-11-15T13:18:34;12.70;;;9.45;;
13855;SDS011;6998;53.608;9.958;2022-11-15T13:21:03;11.15;;;9.63;;
13855;SDS011;6998;53.608;9.958;2022-11-15T13:24:01;10.65;;;9.57;;
13855;SDS011;6998;53.608;9.958;2022-11-15T13:26:28;13.02;;;9.18;;
13855;SDS011;6998;53.608;9.958;2022-11-15T13:28:58;10.93;;;9.60;;
13855;SDS011;6998;53.608;9.958;2022-11-15T13:31:29;12.77;;;10.30;;
13855;SDS011;6998;53.608;9.958;2022-11-15T13:34:02;11.13;;;9.85;;
13855;SDS011;6998;53.608;9.958;2022-11-15T13:36:42;12.02;;;9.90;;
13855;SDS011;6998;53.608;9.958;2022-11-15T13:39:12;11.50;;;9.38;;
13855;SDS011;6998;53.608;9.958;2022-11-15T13:41:49;13.88;;;10.40;;
13855;SDS011;6998;53.608;9.958;2022-11-15T13:44:20;12.13;;;9.25;;
13855;SDS011;6998;53.608;9.958;2022-11-15T13:46:48;12.43;;;10.32;;
13855;SDS011;6998;53.608;9.958;2022-11-15T13:49:14;12.73;;;10.13;;
13855;SDS011;6998;53.608;9.958;2022-11-15T13:51:42;12.18;;;10.25;;
13855;SDS011;6998;53.608;9.958;2022-11-15T13:54:14;10.90;;;9.80;;
13855;SDS011;6998;53.608;9.958;2022-11-15T13:56:48;11.88;;;9.77;;
13855;SDS011;6998;53.608;9.958;2022-11-15T13:59:22;11.32;;;9.80;;
13855;SDS011;6998;53.608;9.958;2022-11-15T14:01:51;13.38;;;9.95;;
13855;SDS011;6998;53.608;9.958;2022-11-15T14:04:19;12.65;;;10.73;;
13855;SDS011;6998;53.608;9.958;2022-11-15T14:06:49;12.75;;;10.05;;
13855;SDS011;6998;53.608;9.958;2022-11-15T14:12:24;10.55;;;9.45;;
13855;SDS011;6998;53.608;9.958;2022-11-15T14:14:55;13.15;;;10.10;;
13855;SDS011;6998;53.608;9.958;2022-11-15T14:17:32;10.85;;;9.23;;
13855;SDS011;6998;53.608;9.958;2022-11-15T14:20:02;12.02;;;9.98;;
13855;SDS011;6998;53.608;9.958;2022-11-15T14:22:50;10.65;;;9.25;;
13855;SDS011;6998;53.608;9.958;2022-11-15T14:25:18;10.63;;;9.07;;
13855;SDS011;6998;53.608;9.958;2022-11-15T14:30:37;10.55;;;9.35;;
13855;SDS011;6998;53.608;9.958;2022-11-15T14:33:14;11.60;;;9.52;;
13855;SDS011;6998;53.608;9.958;2022-11-15T14:35:45;10.70;;;9.60;;
13855;SDS011;6998;53.608;9.958;2022-11-15T14:38:12;11.77;;;9.90;;
13855;SDS011;6998;53.608;9.958;2022-11-15T14:40:39;14.10;;;10.02;;
13855;SDS011;6998;53.608;9.958;2022-11-15T14:43:07;12.90;;;10.32;;
13855;SDS011;6998;53.608;9.958;2022-11-15T14:45:35;12.48;;;10.15;;
13855;SDS011;6998;53.608;9.958;2022-11-15T14:48:03;12.00;;;9.80;;
13855;SDS011;6998;53.608;9.958;2022-11-15T14:50:30;12.65;;;9.95;;
13855;SDS011;6998;53.608;9.958;2022-11-15T14:52:58;10.65;;;9.50;;
13855;SDS011;6998;53.608;9.958;2022-11-15T14:55:25;12.15;;;9.75;;
13855;SDS011;6998;53.608;9.958;2022-11-15T14:57:53;13.15;;;11.18;;
13855;SDS011;6998;53.608;9.958;2022-11-15T15:00:20;11.65;;;10.23;;
13855;SDS011;6998;53.608;9.958;2022-11-15T15:02:50;12.13;;;10.18;;
13855;SDS011;6998;53.608;9.958;2022-11-15T15:05:20;13.25;;;10.70;;
13855;SDS011;6998;53.608;9.958;2022-11-15T15:07:48;11.20;;;9.15;;
13855;SDS011;6998;53.608;9.958;2022-11-15T15:10:16;13.65;;;10.05;;
13855;SDS011;6998;53.608;9.958;2022-11-15T15:12:43;12.13;;;10.48;;
13855;SDS011;6998;53.608;9.958;2022-11-15T15:15:14;13.02;;;10.32;;
13855;SDS011;6998;53.608;9.958;2022-11-15T15:17:42;11.63;;;10.50;;
13855;SDS011;6998;53.608;9.958;2022-11-15T15:20:10;11.60;;;10.40;;